sensor_id;sensor_type;location;lat;lon;timestamp;pressure;altitude;pressure_sealevel;temperature;humidity
14242;BME280;7205;50.864;12.766;2023-03-20T00:00:43;97686.84;;;11.33;87.64
14242;BME280;7205;50.864;12.766;2023-03-20T00:03:31;97684.22;;;11.33;88.14
14242;BME280;7205;50.864;12.766;2023-03-20T00:05:58;97682.38;;;11.33;87.76
14242;BME280;7205;50.864;12.766;2023-03-20T00:08:34;97685.66;;;11.35;88.04
14242;BME280;7205;50.864;12.766;2023-03-20T00:11:26;97685.31;;;11.38;87.60
14242;BME280;7205;50.864;12.766;2023-03-20T00:13:59;97682.81;;;11.37;87.53
14242;BME280;7205;50.864;12.766;2023-03-20T00:20:27;97680.38;;;11.35;87.66
14242;BME280;7205;50.864;12.766;2023-03-20T00:30:54;97695.25;;;11.36;87.29
14242;BME280;7205;50.864;12.766;2023-03-20T00:33:26;97685.47;;;11.37;87.59
14242;BME280;7205;50.864;12.766;2023-03-20T00:38:36;97684.50;;;11.38;86.70
14242;BME280;7205;50.864;12.766;2023-03-20T00:41:28;97681.84;;;11.38;86.81
14242;BME280;7205;50.864;12.766;2023-03-20T00:47:21;97669.28;;;11.40;87.08
14242;BME280;7205;50.864;12.766;2023-03-20T00:49:50;97674.38;;;11.42;86.72
14242;BME280;7205;50.864;12.766;2023-03-20T00:52:19;97665.81;;;11.39;86.74
14242;BME280;7205;50.864;12.766;2023-03-20T00:54:51;97663.81;;;11.42;86.60
14242;BME280;7205;50.864;12.766;2023-03-20T00:57:21;97672.38;;;11.44;86.39
14242;BME280;7205;50.864;12.766;2023-03-20T00:59:52;97674.19;;;11.43;86.07
14242;BME280;7205;50.864;12.766;2023-03-20T01:02:20;97655.88;;;11.42;85.87
14242;BME280;7205;50.864;12.766;2023-03-20T01:04:49;97661.81;;;11.44;85.70
14242;BME280;7205;50.864;12.766;2023-03-20T01:07:17;97667.53;;;11.47;86.28
14242;BME280;7205;50.864;12.766;2023-03-20T01:09:44;97664.09;;;11.47;86.06
14242;BME280;7205;50.864;12.766;2023-03-20T01:12:14;97676.94;;;11.50;85.75
14242;BME280;7205;50.864;12.766;2023-03-20T01:14:42;97667.53;;;11.47;85.46
14242;BME280;7205;50.864;12.766;2023-03-20T01:17:16;97673.84;;;11.46;85.65
14242;BME280;7205;50.864;12.766;2023-03-20T01:19:43;97672.66;;;11.49;85.60
14242;BME280;7205;50.864;12.766;2023-03-20T01:22:10;97671.84;;;11.48;85.28
14242;BME280;7205;50.864;12.766;2023-03-20T01:24:39;97664.09;;;11.47;85.33
14242;BME280;7205;50.864;12.766;2023-03-20T01:27:32;97662.72;;;11.51;85.04
14242;BME280;7205;50.864;12.766;2023-03-20T01:29:59;97673.28;;;11.51;85.02
14242;BME280;7205;50.864;12.766;2023-03-20T01:32:27;97669.47;;;11.53;84.67
14242;BME280;7205;50.864;12.766;2023-03-20T01:34:54;97664.38;;;11.52;84.99
14242;BME280;7205;50.864;12.766;2023-03-20T01:37:23;97674.41;;;11.56;85.08
14242;BME280;7205;50.864;12.766;2023-03-20T01:39:52;97671.38;;;11.59;84.40
14242;BME280;7205;50.864;12.766;2023-03-20T01:42:19;97668.75;;;11.59;84.35
14242;BME280;7205;50.864;12.766;2023-03-20T01:44:48;97666.94;;;11.60;83.77
14242;BME280;7205;50.864;12.766;2023-03-20T01:47:18;97668.75;;;11.59;83.65
14242;BME280;7205;50.864;12.766;2023-03-20T01:50:19;97663.63;;;11.58;83.54
14242;BME280;7205;50.864;12.766;2023-03-20T01:52:52;97666.28;;;11.58;83.53
14242;BME280;7205;50.864;12.766;2023-03-20T01:55:20;97666.47;;;11.56;83.83
14242;BME280;7205;50.864;12.766;2023-03-20T01:57:55;97668.28;;;11.56;83.57
14242;BME280;7205;50.864;12.766;2023-03-20T02:00:25;97666.47;;;11.56;83.03
14242;BME280;7205;50.864;12.766;2023-03-20T02:02:52;97669.28;;;11.55;83.40
14242;BME280;7205;50.864;12.766;2023-03-20T02:05:49;97675.59;;;11.54;83.40
14242;BME280;7205;50.864;12.766;2023-03-20T02:08:21;97675.75;;;11.52;83.15
14242;BME280;7205;50.864;12.766;2023-03-20T02:10:53;97672.47;;;11.50;82.92
14242;BME280;7205;50.864;12.766;2023-03-20T02:13:25;97676.94;;;11.50;82.69
14242;BME280;7205;50.864;12.766;2023-03-20T02:16:01;97671.84;;;11.48;82.90
14242;BME280;7205;50.864;12.766;2023-03-20T02:18:42;97675.47;;;11.47;83.17
14242;BME280;7205;50.864;12.766;2023-03-20T02:24:42;97675.03;;;11.44;82.63
14242;BME280;7205;50.864;12.766;2023-03-20T02:27:22;97676.00;;;11.43;83.27
14242;BME280;7205;50.864;12.766;2023-03-20T02:30:35;97672.72;;;11.40;82.80
14242;BME280;7205;50.864;12.766;2023-03-20T02:33:33;97678.84;;;11.41;83.24
14242;BME280;7205;50.864;12.766;2023-03-20T02:36:22;97671.09;;;11.39;83.09
14242;BME280;7205;50.864;12.766;2023-03-20T02:39:05;97666.63;;;11.40;82.91
14242;BME280;7205;50.864;12.766;2023-03-20T02:41:38;97670.06;;;11.40;83.08
14242;BME280;7205;50.864;12.766;2023-03-20T02:44:13;97667.25;;;11.42;82.57
14242;BME280;7205;50.864;12.766;2023-03-20T02:46:50;97671.56;;;11.43;82.86
14242;BME280;7205;50.864;12.766;2023-03-20T02:49:38;97668.06;;;11.43;82.93
14242;BME280;7205;50.864;12.766;2023-03-20T02:52:15;97672.38;;;11.44;82.58
14242;BME280;7205;50.864;12.766;2023-03-20T02:54:50;97672.38;;;11.44;82.88
14242;BME280;7205;50.864;12.766;2023-03-20T02:57:22;97669.75;;;11.44;82.08
14242;BME280;7205;50.864;12.766;2023-03-20T02:59:55;97660.16;;;11.43;82.70
14242;BME280;7205;50.864;12.766;2023-03-20T03:02:28;97666.28;;;11.43;82.42
14242;BME280;7205;50.864;12.766;2023-03-20T03:05:02;97674.38;;;11.42;81.83
14242;BME280;7205;50.864;12.766;2023-03-20T03:07:32;97668.25;;;11.41;82.26
14242;BME280;7205;50.864;12.766;2023-03-20T03:10:05;97660.50;;;11.39;82.00
14242;BME280;7205;50.864;12.766;2023-03-20T03:12:37;97663.34;;;11.38;82.22
14242;BME280;7205;50.864;12.766;2023-03-20T03:15:12;97654.94;;;11.34;81.45
14242;BME280;7205;50.864;12.766;2023-03-20T03:17:41;97663.06;;;11.33;81.92
14242;BME280;7205;50.864;12.766;2023-03-20T03:20:15;97666.41;;;11.27;81.94
14242;BME280;7205;50.864;12.766;2023-03-20T03:22:46;97677.16;;;11.25;81.22
14242;BME280;7205;50.864;12.766;2023-03-20T03:25:14;97672.59;;;11.19;81.65
14242;BME280;7205;50.864;12.766;2023-03-20T03:27:43;97670.66;;;11.13;81.36
14242;BME280;7205;50.864;12.766;2023-03-20T03:30:16;97671.38;;;11.07;81.19
14242;BME280;7205;50.864;12.766;2023-03-20T03:32:48;97665.31;;;10.99;81.09
14242;BME280;7205;50.864;12.766;2023-03-20T03:35:18;97667.00;;;10.92;81.85
14242;BME280;7205;50.864;12.766;2023-03-20T03:37:52;97677.00;;;10.82;81.59
14242;BME280;7205;50.864;12.766;2023-03-20T03:40:29;97664.03;;;10.72;81.54
14242;BME280;7205;50.864;12.766;2023-03-20T03:43:02;97670.19;;;10.65;82.55
14242;BME280;7205;50.864;12.766;2023-03-20T03:45:37;97669.25;;;10.58;83.09
14242;BME280;7205;50.864;12.766;2023-03-20T03:48:07;97667.63;;;10.49;82.51
14242;BME280;7205;50.864;12.766;2023-03-20T03:50:40;97674.59;;;10.42;83.41
14242;BME280;7205;50.864;12.766;2023-03-20T03:53:17;97669.38;;;10.34;83.99
14242;BME280;7205;50.864;12.766;2023-03-20T03:55:49;97673.69;;;10.27;84.66
14242;BME280;7205;50.864;12.766;2023-03-20T03:58:20;97675.03;;;10.23;85.03
14242;BME280;7205;50.864;12.766;2023-03-20T04:00:51;97674.91;;;10.16;84.81
14242;BME280;7205;50.864;12.766;2023-03-20T04:03:23;97675.41;;;10.11;85.34
14242;BME280;7205;50.864;12.766;2023-03-20T04:05:54;97673.25;;;10.07;86.16
14242;BME280;7205;50.864;12.766;2023-03-20T04:08:22;97681.69;;;10.02;86.04
14242;BME280;7205;50.864;12.766;2023-03-20T04:10:50;97677.72;;;9.98;86.01
14242;BME280;7205;50.864;12.766;2023-03-20T04:13:17;97673.81;;;9.94;86.43
14242;BME280;7205;50.864;12.766;2023-03-20T04:15:44;97679.56;;;9.90;86.93
14242;BME280;7205;50.864;12.766;2023-03-20T04:18:13;97685.38;;;9.85;86.96
14242;BME280;7205;50.864;12.766;2023-03-20T04:20:41;97680.63;;;9.81;86.78
14242;BME280;7205;50.864;12.766;2023-03-20T04:23:08;97687.19;;;9.77;88.10
14242;BME280;7205;50.864;12.766;2023-03-20T04:25:35;97695.28;;;9.75;87.59
14242;BME280;7205;50.864;12.766;2023-03-20T04:28:03;97692.00;;;9.73;88.85
14242;BME280;7205;50.864;12.766;2023-03-20T04:30:40;97699.22;;;9.71;88.84
14242;BME280;7205;50.864;12.766;2023-03-20T04:33:31;97697.13;;;9.67;88.51
14242;BME280;7205;50.864;12.766;2023-03-20T04:36:17;97701.91;;;9.63;88.32
14242;BME280;7205;50.864;12.766;2023-03-20T04:38:44;97704.03;;;9.60;88.79
14242;BME280;7205;50.864;12.766;2023-03-20T04:41:10;97706.19;;;9.56;89.24
14242;BME280;7205;50.864;12.766;2023-03-20T04:43:39;97706.53;;;9.53;89.36
14242;BME280;7205;50.864;12.766;2023-03-20T04:46:06;97710.34;;;9.51;89.45
14242;BME280;7205;50.864;12.766;2023-03-20T04:48:33;97707.03;;;9.49;89.82
14242;BME280;7205;50.864;12.766;2023-03-20T04:51:00;97711.63;;;9.47;90.06
14242;BME280;7205;50.864;12.766;2023-03-20T04:53:38;97719.72;;;9.45;89.81
14242;BME280;7205;50.864;12.766;2023-03-20T04:56:06;97717.25;;;9.44;90.07
14242;BME280;7205;50.864;12.766;2023-03-20T04:58:34;97722.53;;;9.44;90.24
14242;BME280;7205;50.864;12.766;2023-03-20T05:01:03;97719.72;;;9.45;91.22
14242;BME280;7205;50.864;12.766;2023-03-20T05:03:30;97732.06;;;9.45;91.01
14242;BME280;7205;50.864;12.766;2023-03-20T05:05:58;97738.81;;;9.47;91.16
14242;BME280;7205;50.864;12.766;2023-03-20T05:08:25;97737.66;;;9.50;92.30
14242;BME280;7205;50.864;12.766;2023-03-20T05:10:56;97749.53;;;9.54;92.31
14242;BME280;7205;50.864;12.766;2023-03-20T05:13:43;97745.56;;;9.58;91.96
14242;BME280;7205;50.864;12.766;2023-03-20T05:16:31;97751.00;;;9.64;92.46
14242;BME280;7205;50.864;12.766;2023-03-20T05:19:16;97752.13;;;9.70;92.32
14242;BME280;7205;50.864;12.766;2023-03-20T05:22:05;97751.50;;;9.76;92.09
14242;BME280;7205;50.864;12.766;2023-03-20T05:24:58;97755.25;;;9.81;92.57
14242;BME280;7205;50.864;12.766;2023-03-20T05:27:48;97756.22;;;9.88;92.22
14242;BME280;7205;50.864;12.766;2023-03-20T05:30:34;97754.56;;;9.95;92.69
14242;BME280;7205;50.864;12.766;2023-03-20T05:33:21;97761.63;;;10.03;92.15
14242;BME280;7205;50.864;12.766;2023-03-20T05:36:14;97749.44;;;10.10;92.14
14242;BME280;7205;50.864;12.766;2023-03-20T05:38:58;97759.16;;;10.18;91.86
14242;BME280;7205;50.864;12.766;2023-03-20T05:41:32;97760.78;;;10.27;92.27
14242;BME280;7205;50.864;12.766;2023-03-20T05:44:08;97752.03;;;10.34;91.75
14242;BME280;7205;50.864;12.766;2023-03-20T05:47:04;97759.91;;;10.42;91.39
14242;BME280;7205;50.864;12.766;2023-03-20T05:49:52;97758.41;;;10.48;91.18
14242;BME280;7205;50.864;12.766;2023-03-20T05:52:19;97758.53;;;10.54;91.26
14242;BME280;7205;50.864;12.766;2023-03-20T05:55:07;97752.56;;;10.60;90.21
14242;BME280;7205;50.864;12.766;2023-03-20T05:57:47;97757.16;;;10.66;89.94
14242;BME280;7205;50.864;12.766;2023-03-20T06:00:25;97758.28;;;10.72;90.13
14242;BME280;7205;50.864;12.766;2023-03-20T06:03:11;97770.16;;;10.76;89.84
14242;BME280;7205;50.864;12.766;2023-03-20T06:06:07;97771.09;;;10.83;88.98
14242;BME280;7205;50.864;12.766;2023-03-20T06:08:34;97770.75;;;10.86;88.60
14242;BME280;7205;50.864;12.766;2023-03-20T06:11:02;97770.22;;;10.90;88.18
14242;BME280;7205;50.864;12.766;2023-03-20T06:13:31;97771.72;;;10.93;88.54
14242;BME280;7205;50.864;12.766;2023-03-20T06:15:59;97774.84;;;10.96;87.67
14242;BME280;7205;50.864;12.766;2023-03-20T06:18:27;97771.00;;;10.99;87.77
14242;BME280;7205;50.864;12.766;2023-03-20T06:20:56;97769.66;;;11.03;88.09
14242;BME280;7205;50.864;12.766;2023-03-20T06:23:28;97777.91;;;11.08;88.09
14242;BME280;7205;50.864;12.766;2023-03-20T06:25:55;97772.91;;;11.13;88.38
14242;BME280;7205;50.864;12.766;2023-03-20T06:28:22;97774.03;;;11.18;87.68
14242;BME280;7205;50.864;12.766;2023-03-20T06:30:57;97773.31;;;11.24;87.95
14242;BME280;7205;50.864;12.766;2023-03-20T06:33:24;97775.25;;;11.30;87.39
14242;BME280;7205;50.864;12.766;2023-03-20T06:35:59;97778.66;;;11.39;87.55
14242;BME280;7205;50.864;12.766;2023-03-20T06:38:30;97780.06;;;11.50;87.95
14242;BME280;7205;50.864;12.766;2023-03-20T06:41:02;97779.81;;;11.59;88.25
14242;BME280;7205;50.864;12.766;2023-03-20T06:43:30;97775.78;;;11.71;87.51
14242;BME280;7205;50.864;12.766;2023-03-20T06:45:58;97777.84;;;11.84;87.21
14242;BME280;7205;50.864;12.766;2023-03-20T06:48:27;97770.47;;;11.94;86.90
14242;BME280;7205;50.864;12.766;2023-03-20T06:50:54;97780.13;;;12.01;85.69
14242;BME280;7205;50.864;12.766;2023-03-20T06:53:25;97772.84;;;12.03;85.15
14242;BME280;7205;50.864;12.766;2023-03-20T06:56:02;97770.38;;;12.02;84.34
14242;BME280;7205;50.864;12.766;2023-03-20T06:58:29;97770.91;;;11.97;83.80
14242;BME280;7205;50.864;12.766;2023-03-20T07:00:56;97776.56;;;11.94;83.80
14242;BME280;7205;50.864;12.766;2023-03-20T07:03:23;97770.63;;;11.92;84.23
14242;BME280;7205;50.864;12.766;2023-03-20T07:05:52;97770.63;;;11.92;84.09
14242;BME280;7205;50.864;12.766;2023-03-20T07:08:21;97772.47;;;11.92;84.42
14242;BME280;7205;50.864;12.766;2023-03-20T07:10:59;97762.63;;;12.00;84.94
14242;BME280;7205;50.864;12.766;2023-03-20T07:13:28;97767.66;;;12.10;85.94
14242;BME280;7205;50.864;12.766;2023-03-20T07:15:59;97770.84;;;12.20;86.06
14242;BME280;7205;50.864;12.766;2023-03-20T07:18:26;97774.22;;;12.28;85.92
14242;BME280;7205;50.864;12.766;2023-03-20T07:20:58;97777.63;;;12.37;86.12
14242;BME280;7205;50.864;12.766;2023-03-20T07:23:26;97779.25;;;12.38;85.62
14242;BME280;7205;50.864;12.766;2023-03-20T07:25:53;97779.88;;;12.40;84.80
14242;BME280;7205;50.864;12.766;2023-03-20T07:28:20;97782.06;;;12.36;83.95
14242;BME280;7205;50.864;12.766;2023-03-20T07:30:55;97779.44;;;12.36;83.60
14242;BME280;7205;50.864;12.766;2023-03-20T07:33:23;97782.72;;;12.38;83.86
14242;BME280;7205;50.864;12.766;2023-03-20T07:35:51;97778.53;;;12.44;83.54
14242;BME280;7205;50.864;12.766;2023-03-20T07:38:18;97787.16;;;12.52;83.18
14242;BME280;7205;50.864;12.766;2023-03-20T07:40:54;97783.44;;;12.61;82.97
14242;BME280;7205;50.864;12.766;2023-03-20T07:43:21;97785.59;;;12.73;82.96
14242;BME280;7205;50.864;12.766;2023-03-20T07:46:08;97792.34;;;12.90;82.97
14242;BME280;7205;50.864;12.766;2023-03-20T07:48:37;97795.63;;;13.06;82.58
14242;BME280;7205;50.864;12.766;2023-03-20T07:51:04;97793.41;;;13.24;82.39
14242;BME280;7205;50.864;12.766;2023-03-20T07:53:31;97799.72;;;13.44;81.70
14242;BME280;7205;50.864;12.766;2023-03-20T07:55:58;97795.78;;;13.61;80.02
14242;BME280;7205;50.864;12.766;2023-03-20T07:58:24;97796.28;;;13.71;78.67
14242;BME280;7205;50.864;12.766;2023-03-20T08:00:51;97784.69;;;13.72;76.76
14242;BME280;7205;50.864;12.766;2023-03-20T08:03:19;97787.53;;;13.71;76.19
14242;BME280;7205;50.864;12.766;2023-03-20T08:05:46;97783.84;;;13.72;75.86
14242;BME280;7205;50.864;12.766;2023-03-20T08:08:13;97793.09;;;13.76;75.59
14242;BME280;7205;50.864;12.766;2023-03-20T08:10:40;97793.88;;;13.76;75.02
14242;BME280;7205;50.864;12.766;2023-03-20T08:13:07;97787.00;;;13.82;74.45
14242;BME280;7205;50.864;12.766;2023-03-20T08:15:33;97794.75;;;13.83;74.00
14242;BME280;7205;50.864;12.766;2023-03-20T08:18:00;97789.47;;;13.83;73.54
14242;BME280;7205;50.864;12.766;2023-03-20T08:20:28;97787.19;;;13.80;72.96
14242;BME280;7205;50.864;12.766;2023-03-20T08:22:56;97786.13;;;13.75;72.90
14242;BME280;7205;50.864;12.766;2023-03-20T08:25:22;97788.72;;;13.68;72.77
14242;BME280;7205;50.864;12.766;2023-03-20T08:27:49;97784.19;;;13.62;72.90
14242;BME280;7205;50.864;12.766;2023-03-20T08:30:16;97783.34;;;13.62;73.11
14242;BME280;7205;50.864;12.766;2023-03-20T08:32:43;97787.03;;;13.61;73.19
14242;BME280;7205;50.864;12.766;2023-03-20T08:35:10;97787.28;;;13.66;73.56
14242;BME280;7205;50.864;12.766;2023-03-20T08:37:38;97785.69;;;13.71;73.46
14242;BME280;7205;50.864;12.766;2023-03-20T08:40:06;97784.50;;;13.74;73.33
14242;BME280;7205;50.864;12.766;2023-03-20T08:42:33;97787.38;;;13.79;73.23
14242;BME280;7205;50.864;12.766;2023-03-20T08:45:00;97794.56;;;13.85;73.32
14242;BME280;7205;50.864;12.766;2023-03-20T08:47:27;97794.25;;;13.95;73.43
14242;BME280;7205;50.864;12.766;2023-03-20T08:49:54;97801.06;;;14.04;72.79
14242;BME280;7205;50.864;12.766;2023-03-20T08:52:20;97798.09;;;14.13;72.62
14242;BME280;7205;50.864;12.766;2023-03-20T08:54:48;97791.78;;;14.21;72.13
14242;BME280;7205;50.864;12.766;2023-03-20T08:57:15;97795.78;;;14.31;72.05
14242;BME280;7205;50.864;12.766;2023-03-20T08:59:42;97803.00;;;14.44;71.93
14242;BME280;7205;50.864;12.766;2023-03-20T09:02:09;97798.78;;;14.56;71.26
14242;BME280;7205;50.864;12.766;2023-03-20T09:04:36;97796.78;;;14.64;70.02
14242;BME280;7205;50.864;12.766;2023-03-20T09:07:03;97798.44;;;14.72;69.61
14242;BME280;7205;50.864;12.766;2023-03-20T09:09:30;97793.78;;;14.80;69.84
14242;BME280;7205;50.864;12.766;2023-03-20T09:11:59;97786.06;;;14.92;69.64
14242;BME280;7205;50.864;12.766;2023-03-20T09:14:26;97794.69;;;15.00;68.79
14242;BME280;7205;50.864;12.766;2023-03-20T09:16:53;97795.34;;;15.09;68.32
14242;BME280;7205;50.864;12.766;2023-03-20T09:19:20;97797.22;;;15.15;67.54
14242;BME280;7205;50.864;12.766;2023-03-20T09:21:47;97801.72;;;15.15;66.77
14242;BME280;7205;50.864;12.766;2023-03-20T09:24:14;97805.41;;;15.14;66.69
14242;BME280;7205;50.864;12.766;2023-03-20T09:26:40;97801.09;;;15.13;66.27
14242;BME280;7205;50.864;12.766;2023-03-20T09:29:08;97800.09;;;15.14;66.48
14242;BME280;7205;50.864;12.766;2023-03-20T09:31:35;97792.50;;;15.17;66.50
14242;BME280;7205;50.864;12.766;2023-03-20T09:34:02;97798.66;;;15.24;66.27
14242;BME280;7205;50.864;12.766;2023-03-20T09:36:29;97804.22;;;15.36;66.07
14242;BME280;7205;50.864;12.766;2023-03-20T09:38:56;97804.50;;;15.47;65.63
14242;BME280;7205;50.864;12.766;2023-03-20T09:41:25;97805.53;;;15.59;65.34
14242;BME280;7205;50.864;12.766;2023-03-20T09:44:04;97806.16;;;15.74;65.33
14242;BME280;7205;50.864;12.766;2023-03-20T09:46:47;97801.03;;;15.86;64.84
14242;BME280;7205;50.864;12.766;2023-03-20T09:49:26;97800.88;;;15.94;63.70
14242;BME280;7205;50.864;12.766;2023-03-20T09:51:58;97788.34;;;16.01;63.37
14242;BME280;7205;50.864;12.766;2023-03-20T09:54:27;97790.81;;;16.09;63.04
14242;BME280;7205;50.864;12.766;2023-03-20T09:56:56;97803.31;;;16.15;62.63
14242;BME280;7205;50.864;12.766;2023-03-20T09:59:24;97802.91;;;16.18;61.88
14242;BME280;7205;50.864;12.766;2023-03-20T10:01:58;97803.94;;;16.17;61.43
14242;BME280;7205;50.864;12.766;2023-03-20T10:04:45;97800.22;;;16.18;61.86
14242;BME280;7205;50.864;12.766;2023-03-20T10:07:28;97798.59;;;16.23;62.04
14242;BME280;7205;50.864;12.766;2023-03-20T10:09:58;97794.69;;;16.26;61.41
14242;BME280;7205;50.864;12.766;2023-03-20T10:12:41;97809.03;;;16.25;60.84
14242;BME280;7205;50.864;12.766;2023-03-20T10:15:18;97809.47;;;16.15;60.10
14242;BME280;7205;50.864;12.766;2023-03-20T10:17:55;97800.66;;;16.02;60.27
14242;BME280;7205;50.864;12.766;2023-03-20T10:20:32;97804.75;;;15.91;60.42
14242;BME280;7205;50.864;12.766;2023-03-20T10:23:05;97809.03;;;15.79;60.74
14242;BME280;7205;50.864;12.766;2023-03-20T10:25:34;97808.19;;;15.66;60.84
14242;BME280;7205;50.864;12.766;2023-03-20T10:28:05;97813.72;;;15.51;61.21
14242;BME280;7205;50.864;12.766;2023-03-20T10:30:47;97816.09;;;15.33;61.34
14242;BME280;7205;50.864;12.766;2023-03-20T10:33:26;97816.22;;;15.12;61.45
14242;BME280;7205;50.864;12.766;2023-03-20T10:36:03;97813.28;;;14.94;62.36
14242;BME280;7205;50.864;12.766;2023-03-20T10:38:38;97820.97;;;14.76;62.80
14242;BME280;7205;50.864;12.766;2023-03-20T10:41:11;97821.75;;;14.63;63.93
14242;BME280;7205;50.864;12.766;2023-03-20T10:43:41;97814.53;;;14.57;64.82
14242;BME280;7205;50.864;12.766;2023-03-20T10:46:10;97810.88;;;14.58;66.00
14242;BME280;7205;50.864;12.766;2023-03-20T10:48:44;97810.91;;;14.65;66.24
14242;BME280;7205;50.864;12.766;2023-03-20T10:51:15;97813.22;;;14.81;66.85
14242;BME280;7205;50.864;12.766;2023-03-20T10:53:46;97798.59;;;14.98;67.19
14242;BME280;7205;50.864;12.766;2023-03-20T10:56:16;97808.66;;;15.16;66.71
14242;BME280;7205;50.864;12.766;2023-03-20T10:58:56;97798.88;;;15.29;65.80
14242;BME280;7205;50.864;12.766;2023-03-20T11:01:23;97792.00;;;15.41;65.51
14242;BME280;7205;50.864;12.766;2023-03-20T11:03:51;97781.97;;;15.50;64.98
14242;BME280;7205;50.864;12.766;2023-03-20T11:06:23;97771.75;;;15.60;65.09
14242;BME280;7205;50.864;12.766;2023-03-20T11:08:53;97774.22;;;15.74;64.70
14242;BME280;7205;50.864;12.766;2023-03-20T11:11:22;97785.06;;;15.86;63.64
14242;BME280;7205;50.864;12.766;2023-03-20T11:13:49;97776.91;;;15.87;62.67
14242;BME280;7205;50.864;12.766;2023-03-20T11:16:20;97780.56;;;15.93;62.59
14242;BME280;7205;50.864;12.766;2023-03-20T11:18:49;97776.28;;;15.98;62.17
14242;BME280;7205;50.864;12.766;2023-03-20T11:21:43;97771.16;;;15.97;61.35
14242;BME280;7205;50.864;12.766;2023-03-20T11:24:23;97775.03;;;15.94;61.13
14242;BME280;7205;50.864;12.766;2023-03-20T11:26:51;97771.38;;;15.95;61.58
14242;BME280;7205;50.864;12.766;2023-03-20T11:29:23;97770.94;;;15.98;61.49
14242;BME280;7205;50.864;12.766;2023-03-20T11:31:52;97771.16;;;16.03;61.59
14242;BME280;7205;50.864;12.766;2023-03-20T11:34:22;97764.38;;;16.14;61.10
14242;BME280;7205;50.864;12.766;2023-03-20T11:36:56;97767.63;;;16.16;60.43
14242;BME280;7205;50.864;12.766;2023-03-20T11:39:25;97755.56;;;16.20;60.06
14242;BME280;7205;50.864;12.766;2023-03-20T11:41:55;97759.25;;;16.25;60.29
14242;BME280;7205;50.864;12.766;2023-03-20T11:44:24;97760.84;;;16.33;60.09
14242;BME280;7205;50.864;12.766;2023-03-20T11:46:56;97762.28;;;16.42;59.78
14242;BME280;7205;50.864;12.766;2023-03-20T11:49:25;97751.84;;;16.47;59.05
14242;BME280;7205;50.864;12.766;2023-03-20T11:51:59;97751.81;;;16.41;57.90
14242;BME280;7205;50.864;12.766;2023-03-20T11:54:28;97744.25;;;16.31;57.76
14242;BME280;7205;50.864;12.766;2023-03-20T11:56:57;97745.94;;;16.19;57.94
14242;BME280;7205;50.864;12.766;2023-03-20T11:59:29;97752.50;;;16.03;58.09
14242;BME280;7205;50.864;12.766;2023-03-20T12:01:56;97748.19;;;15.83;58.04
14242;BME280;7205;50.864;12.766;2023-03-20T12:04:28;97745.97;;;15.60;59.29
14242;BME280;7205;50.864;12.766;2023-03-20T12:07:00;97762.69;;;15.35;60.16
14242;BME280;7205;50.864;12.766;2023-03-20T12:09:34;97769.34;;;15.04;61.56
14242;BME280;7205;50.864;12.766;2023-03-20T12:12:06;97764.53;;;14.80;63.36
14242;BME280;7205;50.864;12.766;2023-03-20T12:14:40;97760.22;;;14.66;64.74
14242;BME280;7205;50.864;12.766;2023-03-20T12:17:29;97761.19;;;14.59;66.05
14242;BME280;7205;50.864;12.766;2023-03-20T12:20:02;97775.09;;;14.61;66.65
14242;BME280;7205;50.864;12.766;2023-03-20T12:22:35;97780.00;;;14.64;67.89
14242;BME280;7205;50.864;12.766;2023-03-20T12:25:10;97770.00;;;14.66;68.12
14242;BME280;7205;50.864;12.766;2023-03-20T12:27:43;97766.72;;;14.64;68.26
14242;BME280;7205;50.864;12.766;2023-03-20T12:30:17;97764.88;;;14.58;68.87
14242;BME280;7205;50.864;12.766;2023-03-20T12:32:51;97764.41;;;14.48;68.74
14242;BME280;7205;50.864;12.766;2023-03-20T12:35:25;97768.03;;;14.40;68.93
14242;BME280;7205;50.864;12.766;2023-03-20T12:37:54;97773.31;;;14.34;69.53
14242;BME280;7205;50.864;12.766;2023-03-20T12:40:26;97769.63;;;14.28;70.07
14242;BME280;7205;50.864;12.766;2023-03-20T12:43:02;97773.63;;;14.24;69.79
14242;BME280;7205;50.864;12.766;2023-03-20T12:45:32;97762.78;;;14.19;69.58
14242;BME280;7205;50.864;12.766;2023-03-20T12:48:33;97757.84;;;14.16;69.76
14242;BME280;7205;50.864;12.766;2023-03-20T12:51:06;97764.56;;;14.12;70.19
14242;BME280;7205;50.864;12.766;2023-03-20T12:53:50;97761.88;;;14.06;70.35
14242;BME280;7205;50.864;12.766;2023-03-20T12:56:27;97760.00;;;14.00;70.46
14242;BME280;7205;50.864;12.766;2023-03-20T12:59:04;97756.66;;;13.91;70.85
14242;BME280;7205;50.864;12.766;2023-03-20T13:01:42;97758.44;;;13.84;71.25
14242;BME280;7205;50.864;12.766;2023-03-20T13:04:26;97753.66;;;13.73;71.68
14242;BME280;7205;50.864;12.766;2023-03-20T13:07:02;97751.75;;;13.67;72.43
14242;BME280;7205;50.864;12.766;2023-03-20T13:12:36;97740.94;;;13.68;74.47
14242;BME280;7205;50.864;12.766;2023-03-20T13:15:17;97745.75;;;13.79;75.42
14242;BME280;7205;50.864;12.766;2023-03-20T13:17:49;97745.66;;;13.94;76.03
14242;BME280;7205;50.864;12.766;2023-03-20T13:20:23;97750.03;;;14.08;76.37
14242;BME280;7205;50.864;12.766;2023-03-20T13:23:02;97743.97;;;14.21;76.22
14242;BME280;7205;50.864;12.766;2023-03-20T13:25:42;97750.66;;;14.38;76.76
14242;BME280;7205;50.864;12.766;2023-03-20T13:28:16;97749.69;;;14.52;76.63
14242;BME280;7205;50.864;12.766;2023-03-20T13:30:50;97757.09;;;14.56;75.65
14242;BME280;7205;50.864;12.766;2023-03-20T13:33:30;97751.13;;;14.48;74.73
14242;BME280;7205;50.864;12.766;2023-03-20T13:36:03;97747.13;;;14.31;73.39
14242;BME280;7205;50.864;12.766;2023-03-20T13:38:34;97747.56;;;14.07;72.32
14242;BME280;7205;50.864;12.766;2023-03-20T13:41:08;97738.22;;;13.83;71.27
14242;BME280;7205;50.864;12.766;2023-03-20T13:43:39;97742.56;;;13.63;71.27
14242;BME280;7205;50.864;12.766;2023-03-20T13:46:11;97745.91;;;13.50;71.78
14242;BME280;7205;50.864;12.766;2023-03-20T13:48:41;97750.91;;;13.39;72.00
14242;BME280;7205;50.864;12.766;2023-03-20T13:51:20;97744.25;;;13.28;72.58
14242;BME280;7205;50.864;12.766;2023-03-20T13:53:59;97734.81;;;13.19;72.93
14242;BME280;7205;50.864;12.766;2023-03-20T13:56:37;97730.38;;;13.05;73.25